Time;durP1;ratioP1;P1;durP2;ratioP2;P2;SDS_P1;SDS_P2;PMS_P1;PMS_P2;Temp;Humidity;BMP_temperature;BMP_pressure;BME280_temperature;BME280_humidity;BME280_pressure;Samples;Min_cycle;Max_cycle;Signal;HPM_P1;HPM_P2
2022/05/25 00:00:08;;;;;;;4.85;1.00;;;;;;;18.96;49.99;99636.56;4976498;28;20134;-80
2022/05/25 00:02:38;;;;;;;2.78;1.05;;;;;;;18.95;50.22;99641.09;4988300;28;20402;-80
2022/05/25 00:05:08;;;;;;;3.38;1.10;;;;;;;18.91;50.40;99631.78;4986434;28;20037;-80
2022/05/25 00:07:35;;;;;;;3.47;1.42;;;;;;;18.90;50.48;99640.84;4981624;28;20057;-80
2022/05/25 00:10:03;;;;;;;1.90;1.00;;;;;;;18.87;50.45;99630.50;5001677;28;20546;-81
2022/05/25 00:12:30;;;;;;;1.10;0.88;;;;;;;18.86;50.31;99631.53;5011233;28;20045;-84
2022/05/25 00:15:04;;;;;;;1.30;0.90;;;;;;;18.81;50.23;99626.72;4985478;28;20389;-83
2022/05/25 00:17:31;;;;;;;1.25;0.80;;;;;;;18.80;50.39;99627.75;4982731;28;20441;-82
2022/05/25 00:20:00;;;;;;;1.90;0.90;;;;;;;18.78;50.36;99624.44;5011612;28;20045;-80
2022/05/25 00:22:39;;;;;;;1.88;1.05;;;;;;;18.75;50.22;99616.75;4989159;28;20416;-81
2022/05/25 00:25:07;;;;;;;1.10;0.80;;;;;;;18.74;50.37;99620.41;4989007;28;20045;-81
2022/05/25 00:27:34;;;;;;;1.65;0.80;;;;;;;18.73;50.42;99615.25;5002532;28;20121;-82
2022/05/25 00:30:02;;;;;;;2.20;0.70;;;;;;;18.70;50.25;99615.63;5017967;28;20044;-82
2022/05/25 00:32:28;;;;;;;2.15;1.10;;;;;;;18.65;50.47;99617.06;4998621;28;20085;-86
2022/05/25 00:34:55;;;;;;;4.78;1.00;;;;;;;18.64;50.53;99622.59;5006578;28;20049;-85
2022/05/25 00:37:22;;;;;;;1.35;0.77;;;;;;;18.61;50.67;99623.00;4970092;28;20069;-86
2022/05/25 00:39:50;;;;;;;2.67;1.02;;;;;;;18.59;50.78;99620.50;5020145;28;20037;-86
2022/05/25 00:46:51;;;;;;;1.33;0.98;;;;;;;18.54;50.50;99627.47;4988075;28;20474;-83
2022/05/25 00:49:26;;;;;;;3.67;1.00;;;;;;;18.47;50.88;99624.75;4990796;28;20132;-83
2022/05/25 00:56:24;;;;;;;1.20;0.90;;;;;;;18.43;50.18;99637.72;5004000;28;20519;-83
2022/05/25 00:58:56;;;;;;;1.55;0.90;;;;;;;18.41;50.67;99642.44;4993640;28;20498;-83
2022/05/25 01:01:25;;;;;;;1.00;0.70;;;;;;;18.42;50.77;99643.31;4992129;28;20045;-83
2022/05/25 01:03:52;;;;;;;1.83;0.90;;;;;;;18.40;50.74;99646.19;5000498;28;20370;-83
2022/05/25 01:06:34;;;;;;;3.42;1.15;;;;;;;18.38;51.51;99655.44;5010629;28;20072;-84
2022/05/25 01:09:22;;;;;;;5.95;0.90;;;;;;;18.37;51.64;99653.81;5017698;28;20050;-80
2022/05/25 01:12:16;;;;;;;4.07;0.75;;;;;;;18.36;51.74;99658.31;4956042;28;20049;-80
2022/05/25 01:15:02;;;;;;;1.35;1.20;;;;;;;18.34;51.82;99662.22;4958292;28;21021;-80
2022/05/25 01:18:13;;;;;;;6.93;1.05;;;;;;;18.31;51.76;99659.91;4990355;28;20046;-80
2022/05/25 01:20:52;;;;;;;1.30;0.77;;;;;;;18.31;51.91;99660.75;4935023;28;20073;-80
2022/05/25 01:23:37;;;;;;;1.92;0.95;;;;;;;18.29;51.63;99657.41;5008698;28;20038;-86
2022/05/25 01:26:45;;;;;;;1.63;1.10;;;;;;;18.24;52.10;99651.78;5019042;28;20049;-86
2022/05/25 01:29:45;;;;;;;2.63;1.38;;;;;;;18.19;52.58;99652.38;4935769;28;20059;-86
2022/05/25 01:32:34;;;;;;;2.75;0.85;;;;;;;18.18;52.76;99655.22;4921730;28;20042;-85
2022/05/25 01:35:12;;;;;;;1.25;0.93;;;;;;;18.17;52.24;99662.47;4985525;28;20046;-86
2022/05/25 01:37:47;;;;;;;4.68;1.20;;;;;;;18.16;52.32;99666.16;4991688;28;20445;-82
2022/05/25 01:40:41;;;;;;;2.25;1.02;;;;;;;18.16;52.31;99668.03;4990734;28;20088;-82
2022/05/25 01:43:20;;;;;;;1.60;1.50;;;;;;;18.12;52.32;99664.88;4985202;28;20057;-82
2022/05/25 01:45:50;;;;;;;3.22;1.20;;;;;;;18.13;52.07;99673.78;4944394;28;20129;-82
2022/05/25 01:48:20;;;;;;;2.22;1.02;;;;;;;18.09;52.14;99673.34;4912007;28;20066;-82
2022/05/25 01:51:19;;;;;;;1.00;0.80;;;;;;;18.04;52.83;99674.91;4941825;28;20649;-82
2022/05/25 01:53:50;;;;;;;1.05;0.95;;;;;;;18.04;52.28;99675.75;4879071;28;20054;-83
2022/05/25 02:00:50;;;;;;;1.70;0.82;;;;;;;18.05;52.52;99674.72;4927183;28;20351;-82
2022/05/25 02:06:37;;;;;;;2.78;1.13;;;;;;;17.98;52.62;99671.13;4922472;28;20043;-81
2022/05/25 02:09:23;;;;;;;6.20;1.20;;;;;;;17.95;52.98;99674.19;4909972;28;20051;-82
2022/05/25 02:12:38;;;;;;;3.13;1.00;;;;;;;17.95;52.83;99672.31;4948037;28;20054;-82
2022/05/25 02:15:31;;;;;;;1.05;0.90;;;;;;;17.96;52.62;99671.31;4842209;28;20050;-82
2022/05/25 02:18:16;;;;;;;3.40;1.40;;;;;;;17.97;52.03;99682.91;4926127;28;20402;-83
2022/05/25 02:21:04;;;;;;;2.35;1.10;;;;;;;17.93;52.56;99681.59;5021160;28;20055;-83
2022/05/25 02:23:40;;;;;;;4.57;1.38;;;;;;;17.92;52.75;99677.25;4981113;28;20481;-83
2022/05/25 02:26:37;;;;;;;2.72;1.10;;;;;;;17.89;52.64;99672.25;5017455;28;22587;-83
2022/05/25 02:29:10;;;;;;;1.35;1.00;;;;;;;17.88;52.59;99676.78;4957335;28;20042;-87
2022/05/25 02:31:44;;;;;;;1.08;0.98;;;;;;;17.86;52.52;99678.84;4993602;28;20050;-80
2022/05/25 02:34:14;;;;;;;3.90;1.20;;;;;;;17.88;52.69;99681.31;4979396;28;20438;-80
2022/05/25 02:36:41;;;;;;;1.48;0.88;;;;;;;17.84;52.59;99682.72;5016321;28;20135;-81
2022/05/25 02:39:10;;;;;;;2.10;1.30;;;;;;;17.82;52.93;99680.22;4991787;28;20072;-81
2022/05/25 02:41:46;;;;;;;1.77;1.10;;;;;;;17.78;53.08;99685.09;5003860;28;20037;-80
2022/05/25 02:44:13;;;;;;;1.30;1.08;;;;;;;17.78;52.87;99690.47;4972412;28;20054;-80
2022/05/25 02:46:40;;;;;;;1.65;1.05;;;;;;;17.78;52.74;99689.63;5017868;28;20067;-80
2022/05/25 02:49:07;;;;;;;2.90;1.20;;;;;;;17.75;52.79;99690.00;4974165;28;20042;-80
2022/05/25 02:51:35;;;;;;;1.63;1.13;;;;;;;17.74;52.79;99691.84;4988902;28;20049;-80
2022/05/25 02:54:02;;;;;;;1.52;1.38;;;;;;;17.72;52.97;99690.38;4992839;28;20049;-80
2022/05/25 02:56:29;;;;;;;4.50;1.48;;;;;;;17.69;52.80;99696.97;5017316;28;20497;-80
2022/05/25 02:58:56;;;;;;;2.00;1.35;;;;;;;17.67;53.37;99692.78;5015080;28;20163;-80
2022/05/25 03:01:23;;;;;;;1.70;1.17;;;;;;;17.66;53.25;99694.66;5021424;28;20041;-83
2022/05/25 03:03:50;;;;;;;2.28;1.17;;;;;;;17.65;53.29;99697.50;5009124;28;20048;-80
2022/05/25 03:06:18;;;;;;;3.45;1.10;;;;;;;17.63;53.58;99703.06;5016133;28;20037;-80
2022/05/25 03:08:45;;;;;;;3.08;1.35;;;;;;;17.63;53.29;99699.53;4972045;28;20119;-81
2022/05/25 03:11:12;;;;;;;2.28;1.77;;;;;;;17.61;53.32;99701.59;5005192;28;20049;-82
2022/05/25 03:13:38;;;;;;;3.15;1.08;;;;;;;17.60;53.38;99705.28;4988384;28;20060;-82
2022/05/25 03:16:07;;;;;;;2.13;1.10;;;;;;;17.60;53.45;99714.16;4991662;28;20497;-84
2022/05/25 03:18:34;;;;;;;1.38;1.10;;;;;;;17.57;53.59;99710.00;4987381;28;20042;-84
2022/05/25 03:21:01;;;;;;;2.38;1.35;;;;;;;17.56;53.46;99713.72;5019046;28;20473;-82
2022/05/25 03:23:28;;;;;;;2.45;1.20;;;;;;;17.57;53.58;99711.84;4993693;28;20045;-82
2022/05/25 03:25:54;;;;;;;3.58;1.63;;;;;;;17.54;53.46;99717.59;4994550;28;20053;-82
2022/05/25 03:28:21;;;;;;;3.22;1.30;;;;;;;17.51;53.55;99715.28;5011175;28;20126;-82
2022/05/25 03:30:48;;;;;;;1.77;1.20;;;;;;;17.50;53.41;99721.66;5015232;28;20060;-82
2022/05/25 03:33:15;;;;;;;2.65;1.30;;;;;;;17.45;53.66;99724.06;5012250;28;20064;-82
2022/05/25 03:35:43;;;;;;;3.80;1.45;;;;;;;17.44;53.64;99728.59;5003541;28;20073;-82
2022/05/25 03:38:10;;;;;;;2.88;1.17;;;;;;;17.41;54.05;99731.66;5011181;28;20060;-85
2022/05/25 03:40:37;;;;;;;2.25;1.20;;;;;;;17.34;53.73;99722.66;5001031;28;20058;-86
2022/05/25 03:43:06;;;;;;;3.58;1.50;;;;;;;17.32;53.78;99727.38;5000142;28;20631;-86
2022/05/25 03:45:33;;;;;;;4.18;1.40;;;;;;;17.29;54.12;99733.09;4984597;28;20049;-85
2022/05/25 03:47:59;;;;;;;1.33;1.10;;;;;;;17.27;54.03;99732.44;5003488;28;20042;-81
2022/05/25 03:50:26;;;;;;;1.75;1.30;;;;;;;17.24;54.25;99743.53;4994707;28;20042;-80
2022/05/25 03:52:53;;;;;;;3.92;1.40;;;;;;;17.22;54.02;99740.19;4992354;28;20065;-82
2022/05/25 03:55:50;;;;;;;2.17;1.42;;;;;;;17.15;54.48;99742.78;5011748;28;20081;-81
2022/05/25 03:58:16;;;;;;;2.28;1.40;;;;;;;17.15;54.21;99742.78;4958318;28;20494;-80
2022/05/25 04:00:44;;;;;;;1.58;1.20;;;;;;;17.13;54.42;99748.31;5017948;28;20128;-80
2022/05/25 04:03:15;;;;;;;3.47;1.35;;;;;;;17.13;54.42;99760.91;5018775;28;20095;-80
2022/05/25 04:05:43;;;;;;;2.60;1.40;;;;;;;17.13;54.59;99758.22;5009678;28;20049;-81
2022/05/25 04:08:10;;;;;;;3.38;1.17;;;;;;;17.11;54.64;99757.56;4985981;28;20045;-82
2022/05/25 04:10:37;;;;;;;4.40;1.42;;;;;;;17.11;54.43;99757.56;5010284;28;20046;-82
2022/05/25 04:13:03;;;;;;;1.77;1.42;;;;;;;17.10;54.66;99762.09;5003829;28;20099;-82
2022/05/25 04:15:31;;;;;;;3.85;1.20;;;;;;;17.09;54.72;99763.09;4973003;28;20531;-82
2022/05/25 04:17:58;;;;;;;3.35;1.58;;;;;;;17.11;54.42;99774.50;5011537;28;20096;-82
2022/05/25 04:20:26;;;;;;;3.10;1.45;;;;;;;17.12;54.19;99770.81;4999681;28;20052;-82
2022/05/25 04:23:00;;;;;;;2.70;1.40;;;;;;;17.12;54.53;99768.13;4971687;28;20096;-86
2022/05/25 04:25:27;;;;;;;4.43;1.45;;;;;;;17.15;54.26;99777.69;5002477;28;20509;-86
2022/05/25 04:27:55;;;;;;;1.58;1.38;;;;;;;17.17;54.73;99777.47;5005492;28;20046;-85
2022/05/25 04:30:29;;;;;;;2.13;1.20;;;;;;;17.13;55.01;99782.38;5002372;28;20038;-82
2022/05/25 04:32:56;;;;;;;2.22;1.42;;;;;;;17.16;54.76;99782.00;4972494;28;20052;-82
2022/05/25 04:35:23;;;;;;;2.80;1.52;;;;;;;17.15;54.69;99785.72;4987545;28;20043;-82
2022/05/25 04:37:53;;;;;;;1.77;1.25;;;;;;;17.14;54.72;99795.59;4988626;28;20072;-82
2022/05/25 04:40:26;;;;;;;1.73;1.50;;;;;;;17.14;54.70;99787.53;5005051;28;20038;-82
2022/05/25 04:42:54;;;;;;;4.32;1.85;;;;;;;17.15;54.83;99799.13;4990034;28;20045;-82
2022/05/25 04:46:17;;;;;;;3.38;1.73;;;;;;;17.08;55.22;99793.63;4991596;28;20088;-82
2022/05/25 04:48:44;;;;;;;4.57;1.58;;;;;;;17.13;54.45;99790.44;4927333;28;20053;-86
2022/05/25 04:51:12;;;;;;;2.28;1.50;;;;;;;17.13;54.55;99801.16;4993023;28;20054;-85
2022/05/25 04:53:40;;;;;;;2.53;1.38;;;;;;;17.12;54.32;99804.84;4967853;28;20827;-86
2022/05/25 04:58:52;;;;;;;1.80;1.48;;;;;;;16.91;54.68;99817.03;4960337;28;20127;-85
2022/05/25 05:01:19;;;;;;;2.50;1.52;;;;;;;16.89;54.37;99824.47;5015795;28;20117;-82
2022/05/25 05:03:47;;;;;;;1.85;1.73;;;;;;;16.91;54.21;99824.28;5016534;28;20044;-82
2022/05/25 05:06:14;;;;;;;1.58;1.30;;;;;;;16.91;53.91;99830.47;5013877;28;20096;-82
2022/05/25 05:08:41;;;;;;;2.28;1.40;;;;;;;16.93;54.22;99827.63;5003048;28;20064;-85
2022/05/25 05:11:12;;;;;;;3.05;1.45;;;;;;;16.94;54.10;99831.94;5019492;28;20494;-86
2022/05/25 05:13:39;;;;;;;3.83;1.80;;;;;;;16.98;54.19;99835.13;4964877;28;20046;-82
2022/05/25 05:16:15;;;;;;;3.70;1.70;;;;;;;16.96;54.94;99834.47;4977994;28;20050;-86
2022/05/25 05:18:45;;;;;;;6.90;1.80;;;;;;;16.96;54.41;99837.97;4956703;28;20057;-86
2022/05/25 05:21:22;;;;;;;3.38;1.70;;;;;;;16.94;54.54;99840.00;4990011;28;20498;-85
2022/05/25 05:23:49;;;;;;;4.13;1.70;;;;;;;16.95;54.03;99838.19;4982903;28;20105;-86
2022/05/25 05:26:15;;;;;;;3.00;1.60;;;;;;;16.93;54.15;99846.38;4999467;28;20069;-81
2022/05/25 05:28:45;;;;;;;2.60;1.50;;;;;;;16.90;54.55;99849.44;4983101;28;20065;-80
2022/05/25 05:31:13;;;;;;;2.97;1.67;;;;;;;16.98;54.32;99856.59;4956157;28;20069;-84
2022/05/25 05:33:40;;;;;;;3.35;1.80;;;;;;;16.98;54.26;99854.75;4996745;28;20058;-82
2022/05/25 05:36:21;;;;;;;4.43;2.15;;;;;;;16.97;54.49;99852.22;5000229;28;20099;-82
2022/05/25 05:38:55;;;;;;;4.55;1.80;;;;;;;17.01;54.22;99864.28;4988556;28;20053;-82
2022/05/25 05:41:25;;;;;;;2.72;1.63;;;;;;;17.02;54.23;99861.44;5003371;28;20175;-82
2022/05/25 05:43:52;;;;;;;2.22;1.67;;;;;;;17.05;54.42;99865.63;4959754;28;20583;-82
2022/05/25 05:46:19;;;;;;;2.33;1.70;;;;;;;17.07;53.95;99869.78;5006589;28;20096;-80
2022/05/25 05:48:46;;;;;;;2.45;1.80;;;;;;;17.06;54.10;99862.72;5013339;28;20045;-80
2022/05/25 05:51:14;;;;;;;2.47;1.70;;;;;;;17.16;54.37;99867.03;5005307;28;20550;-80
2022/05/25 05:53:42;;;;;;;2.53;1.50;;;;;;;17.20;54.14;99863.84;5016286;28;20060;-82
2022/05/25 05:56:10;;;;;;;4.72;1.90;;;;;;;17.26;54.10;99867.66;5012300;28;20046;-81
2022/05/25 05:58:39;;;;;;;3.22;1.55;;;;;;;17.25;54.05;99866.81;5005975;28;20463;-80
2022/05/25 06:01:05;;;;;;;3.40;1.75;;;;;;;17.31;54.00;99866.09;5015096;28;20046;-81
2022/05/25 06:03:32;;;;;;;3.35;1.80;;;;;;;17.36;54.08;99873.63;5020295;28;20052;-81
2022/05/25 06:06:00;;;;;;;3.90;1.73;;;;;;;17.45;54.07;99887.81;5002425;28;20453;-81
2022/05/25 06:08:29;;;;;;;2.60;1.67;;;;;;;17.50;53.79;99886.28;5012289;28;20046;-81
2022/05/25 06:10:56;;;;;;;4.65;2.15;;;;;;;17.54;54.32;99882.19;4998803;28;20050;-81
2022/05/25 06:13:49;;;;;;;3.92;2.10;;;;;;;17.58;53.90;99885.38;5020220;28;20056;-80
2022/05/25 06:19:33;;;;;;;;;;;;;;;17.68;54.08;99887.78;4920821;28;20053;-78
2022/05/25 06:22:10;;;;;;;3.72;1.85;;;;;;;17.74;53.79;99879.84;5015553;28;19926;-79
2022/05/25 06:24:46;;;;;;;5.03;2.15;;;;;;;17.79;53.79;99885.56;4961280;28;20096;-79
2022/05/25 06:27:16;;;;;;;4.50;2.03;;;;;;;17.84;53.48;99889.56;4983750;28;20034;-79
2022/05/25 06:29:47;;;;;;;7.85;2.35;;;;;;;17.88;53.77;99894.34;4999879;28;20057;-80
2022/05/25 06:32:17;;;;;;;5.00;2.20;;;;;;;17.94;54.06;99896.34;4984111;28;20042;-78
2022/05/25 06:34:50;;;;;;;4.70;2.10;;;;;;;18.00;54.13;99892.91;5008615;28;20048;-81
2022/05/25 06:37:21;;;;;;;2.85;1.65;;;;;;;18.02;53.88;99890.06;5003388;28;20406;-81
2022/05/25 06:39:49;;;;;;;2.55;2.03;;;;;;;18.10;53.76;99897.19;4980346;28;20045;-78
2022/05/25 06:42:17;;;;;;;2.00;1.80;;;;;;;18.10;54.06;99899.88;4980478;28;20173;-78
2022/05/25 06:44:53;;;;;;;3.35;1.77;;;;;;;18.11;53.98;99906.91;4969878;28;20057;-78
2022/05/25 06:47:20;;;;;;;3.60;1.70;;;;;;;18.17;53.64;99901.66;4974881;28;20052;-80
2022/05/25 06:49:47;;;;;;;3.92;1.85;;;;;;;18.12;53.89;99905.91;5009090;28;20099;-81
2022/05/25 06:52:15;;;;;;;3.42;1.90;;;;;;;18.14;53.64;99906.53;4993101;28;20559;-83
2022/05/25 06:54:42;;;;;;;6.65;1.90;;;;;;;18.18;53.67;99906.00;5015090;28;20139;-85
2022/05/25 06:57:10;;;;;;;6.82;2.00;;;;;;;18.16;53.88;99909.88;5005734;28;20504;-80
2022/05/25 06:59:37;;;;;;;5.18;2.00;;;;;;;18.17;54.25;99919.63;5001065;28;20046;-80
2022/05/25 07:02:03;;;;;;;2.60;1.50;;;;;;;18.16;55.01;99924.16;4990709;28;20124;-80
2022/05/25 07:04:31;;;;;;;3.33;1.80;;;;;;;18.28;54.11;99921.88;4988200;28;20057;-81
2022/05/25 07:07:04;;;;;;;5.47;1.67;;;;;;;18.32;54.36;99927.69;5009414;28;20041;-81
2022/05/25 07:09:31;;;;;;;2.03;1.50;;;;;;;18.42;53.64;99931.81;5004052;28;20525;-82
2022/05/25 07:11:58;;;;;;;8.63;4.80;;;;;;;18.53;55.37;99938.59;5003047;28;20041;-76
2022/05/25 07:14:26;;;;;;;3.33;1.70;;;;;;;18.59;54.17;99937.00;4985218;28;20133;-76
2022/05/25 07:16:55;;;;;;;4.13;1.40;;;;;;;18.59;53.45;99947.75;4994259;28;20148;-75
2022/05/25 07:19:22;;;;;;;3.55;1.33;;;;;;;18.58;52.95;99941.56;5006656;28;20045;-76
2022/05/25 07:21:49;;;;;;;3.38;1.33;;;;;;;18.54;53.69;99939.41;4985538;28;20636;-75
2022/05/25 07:24:16;;;;;;;4.38;1.40;;;;;;;18.61;52.99;99943.88;4999326;28;20418;-76
2022/05/25 07:26:43;;;;;;;3.30;1.40;;;;;;;18.53;53.26;99943.97;4999139;28;20587;-75
2022/05/25 07:29:10;;;;;;;5.47;1.90;;;;;;;18.59;53.36;99940.53;4997339;28;20466;-77
2022/05/25 07:31:42;;;;;;;3.67;1.65;;;;;;;18.65;52.55;99934.41;5004176;28;20090;-76
2022/05/25 07:34:21;;;;;;;1.93;1.67;;;;;;;18.69;52.06;99950.19;4972691;28;20042;-82
2022/05/25 07:36:57;;;;;;;3.97;1.48;;;;;;;18.75;51.73;99942.25;4973877;28;20112;-80
2022/05/25 07:39:32;;;;;;;2.88;1.40;;;;;;;18.75;51.74;99947.63;5011476;28;20046;-81
2022/05/25 07:42:00;;;;;;;4.78;1.38;;;;;;;18.82;52.13;99939.63;5005488;28;20073;-81
2022/05/25 07:45:00;;;;;;;3.58;1.30;;;;;;;18.65;52.04;99947.88;5009408;28;20045;-81
2022/05/25 07:47:29;;;;;;;6.03;2.08;;;;;;;18.90;52.14;99946.75;4897960;28;20613;-81
2022/05/25 07:49:56;;;;;;;2.13;1.50;;;;;;;18.98;51.96;99950.19;4971853;28;20065;-80
2022/05/25 07:52:25;;;;;;;3.53;1.40;;;;;;;18.99;51.12;99937.56;5004002;28;20042;-80
2022/05/25 07:54:52;;;;;;;1.85;1.35;;;;;;;19.03;51.55;99946.91;4996151;28;20563;-82
2022/05/25 07:57:18;;;;;;;2.78;1.50;;;;;;;19.02;51.85;99943.41;5005790;28;20042;-82
2022/05/25 07:59:45;;;;;;;4.22;1.60;;;;;;;19.07;51.57;99946.34;5015515;28;20107;-82
2022/05/25 08:07:54;;;;;;;1.45;1.13;;;;;;;19.20;51.18;99951.06;4961058;28;20045;-84
2022/05/25 08:10:24;;;;;;;4.60;1.83;;;;;;;19.23;49.29;99941.78;4984568;28;20041;-83
2022/05/25 08:12:55;;;;;;;3.72;1.33;;;;;;;19.14;50.08;99942.94;4995743;28;20127;-86
2022/05/25 08:15:22;;;;;;;3.42;1.30;;;;;;;19.09;50.79;99938.09;4951209;28;20062;-90
2022/05/25 08:17:50;;;;;;;2.22;0.98;;;;;;;19.17;50.59;99939.84;5001846;28;20054;-89
2022/05/25 08:20:18;;;;;;;1.67;1.02;;;;;;;19.26;49.99;99936.88;5007062;28;20054;-89
2022/05/25 08:22:45;;;;;;;2.78;1.83;;;;;;;19.30;50.16;99938.13;5009082;28;20044;-91
2022/05/25 08:25:14;;;;;;;1.77;1.23;;;;;;;19.28;49.86;99940.22;5030315;28;20039;-91
2022/05/25 08:27:41;;;;;;;2.17;1.10;;;;;;;19.34;49.98;99940.47;4967758;28;20528;-91
2022/05/25 08:30:11;;;;;;;2.83;1.50;;;;;;;19.39;48.24;99940.75;4995067;28;20038;-82
2022/05/25 08:32:37;;;;;;;2.33;1.10;;;;;;;19.37;49.15;99942.78;4982035;28;20042;-77
2022/05/25 08:35:05;;;;;;;5.95;1.48;;;;;;;19.43;49.34;99942.00;4965867;28;20120;-78
2022/05/25 08:37:32;;;;;;;3.20;1.30;;;;;;;19.43;49.36;99937.44;4985671;28;20054;-83
2022/05/25 08:39:58;;;;;;;1.70;1.02;;;;;;;19.44;48.89;99931.06;5015304;28;20053;-79
2022/05/25 08:42:28;;;;;;;2.75;0.85;;;;;;;19.41;48.58;99927.91;5014066;28;20048;-79
2022/05/25 08:44:55;;;;;;;3.20;1.20;;;;;;;19.46;49.06;99933.53;4995291;28;20500;-79
2022/05/25 08:47:22;;;;;;;3.28;1.23;;;;;;;19.53;49.08;99921.81;4991293;28;20056;-77
2022/05/25 08:49:51;;;;;;;4.28;1.27;;;;;;;19.55;48.19;99935.09;4963853;28;20064;-78
2022/05/25 08:52:45;;;;;;;2.63;1.10;;;;;;;19.45;47.45;99939.97;5016394;28;20529;-81
2022/05/25 08:55:32;;;;;;;2.72;1.08;;;;;;;19.59;47.89;99935.53;4963170;28;20057;-81
2022/05/25 08:57:59;;;;;;;1.98;1.27;;;;;;;19.61;48.25;99933.50;4991483;28;20045;-82
2022/05/25 09:00:26;;;;;;;5.35;1.17;;;;;;;19.76;48.01;99944.25;4999446;28;20049;-83
2022/05/25 09:03:09;;;;;;;4.00;1.50;;;;;;;19.70;47.06;99941.28;4989283;28;20046;-82
2022/05/25 09:05:37;;;;;;;3.35;1.27;;;;;;;19.76;47.30;99946.94;4956889;28;20496;-82
2022/05/25 09:08:03;;;;;;;1.27;0.90;;;;;;;19.67;46.72;99947.06;4996304;28;20493;-82
2022/05/25 09:10:33;;;;;;;4.53;1.42;;;;;;;19.64;45.65;99954.66;5016977;28;20053;-82
2022/05/25 09:13:34;;;;;;;3.42;1.13;;;;;;;19.56;44.93;99952.09;4995046;28;20229;-83
2022/05/25 09:16:16;;;;;;;2.78;1.00;;;;;;;19.68;46.47;99950.59;4946355;28;20061;-81
2022/05/25 09:18:58;;;;;;;4.85;0.88;;;;;;;19.71;46.61;99945.63;4990907;28;20447;-82
2022/05/25 09:21:28;;;;;;;3.33;1.17;;;;;;;19.84;44.70;99949.50;4946547;28;20045;-81
2022/05/25 09:23:57;;;;;;;2.83;0.85;;;;;;;19.70;45.43;99946.69;4977056;28;20056;-85
2022/05/25 09:26:25;;;;;;;2.35;0.90;;;;;;;19.70;45.46;99954.75;4982724;28;20045;-82
2022/05/25 09:29:05;;;;;;;2.05;0.85;;;;;;;19.69;44.92;99952.25;4988394;28;20053;-82
2022/05/25 09:31:38;;;;;;;3.53;1.10;;;;;;;19.78;44.81;99956.50;4979901;28;20184;-83
2022/05/25 09:34:10;;;;;;;6.72;1.30;;;;;;;19.81;44.78;99956.09;4994421;28;20092;-84
2022/05/25 09:36:46;;;;;;;1.87;0.90;;;;;;;19.78;44.53;99947.59;5010501;28;20099;-83
2022/05/25 09:39:45;;;;;;;1.30;1.02;;;;;;;19.79;42.97;99951.94;4994166;28;20041;-80
2022/05/25 09:42:16;;;;;;;2.40;1.25;;;;;;;19.92;45.00;99952.03;4916783;28;20057;-79
2022/05/25 09:44:48;;;;;;;2.95;1.20;;;;;;;20.01;42.93;99948.19;5011096;28;20048;-79
2022/05/25 09:47:21;;;;;;;;;;;;;;;19.90;44.17;99959.53;4993251;28;20049;-84
2022/05/25 09:49:49;;;;;;;10.23;1.35;;;;;;;19.98;45.09;99963.94;5016392;28;19936;-83
2022/05/25 09:52:42;;;;;;;2.70;1.02;;;;;;;19.94;45.00;99966.16;5011001;28;20061;-82
2022/05/25 09:55:23;;;;;;;4.83;1.07;;;;;;;20.01;44.81;99974.31;4969234;28;20042;-83
2022/05/25 09:57:55;;;;;;;2.08;0.93;;;;;;;20.09;44.48;99966.94;4997932;28;20042;-84
2022/05/25 10:00:47;;;;;;;2.05;1.10;;;;;;;20.03;43.10;99967.72;5002721;28;20049;-83
2022/05/25 10:03:37;;;;;;;2.47;0.80;;;;;;;20.15;43.26;99957.25;4969267;28;20049;-79
2022/05/25 10:06:24;;;;;;;2.97;0.90;;;;;;;20.17;43.87;99961.41;4961311;28;20381;-79
2022/05/25 10:09:17;;;;;;;2.38;1.33;;;;;;;20.24;43.85;99966.84;4959379;28;20041;-80
2022/05/25 10:11:51;;;;;;;1.73;0.90;;;;;;;20.28;43.75;99964.59;4989468;28;20535;-83
2022/05/25 10:14:27;;;;;;;2.78;1.20;;;;;;;20.35;43.21;99978.94;4996722;28;20893;-84
2022/05/25 10:17:05;;;;;;;3.72;0.90;;;;;;;20.41;43.58;99967.41;4969762;28;20046;-84
2022/05/25 10:19:36;;;;;;;4.05;1.08;;;;;;;20.33;42.48;99964.84;5006112;28;20444;-85
2022/05/25 10:22:03;;;;;;;5.40;1.05;;;;;;;20.35;43.00;99951.97;4998812;28;20571;-84
2022/05/25 10:24:36;;;;;;;2.70;1.20;;;;;;;20.35;43.49;99960.94;4990684;28;20112;-84
2022/05/25 10:27:03;;;;;;;1.90;1.27;;;;;;;20.41;43.52;99953.91;4971546;28;20040;-84
2022/05/25 10:37:56;;;;;;;2.33;1.13;;;;;;;20.45;43.49;99952.47;4966524;28;20074;-79
2022/05/25 10:40:26;;;;;;;3.85;1.05;;;;;;;20.43;43.15;99956.38;4942355;28;20051;-79
2022/05/25 10:42:57;;;;;;;1.95;1.00;;;;;;;20.38;43.00;99955.13;4964848;28;20053;-81
2022/05/25 10:45:34;;;;;;;4.72;0.80;;;;;;;20.39;42.65;99955.97;4964059;28;20494;-80
2022/05/25 10:48:25;;;;;;;1.63;1.02;;;;;;;20.37;43.07;99949.94;4975034;28;20071;-79
2022/05/25 10:51:06;;;;;;;2.78;0.90;;;;;;;20.25;42.70;99955.03;4951391;28;20057;-79
2022/05/25 10:57:07;;;;;;;1.25;0.93;;;;;;;20.26;43.05;99943.22;4940498;28;20729;-77
2022/05/25 10:59:50;;;;;;;2.90;0.77;;;;;;;20.21;42.90;99947.53;4966614;28;20050;-76
2022/05/25 11:02:28;;;;;;;;;;;;;;;20.20;43.26;99948.53;4973422;28;20045;-76
2022/05/25 11:05:09;;;;;;;2.20;1.00;;;;;;;20.31;42.68;99948.84;4968867;28;19922;-90
2022/05/25 11:07:40;;;;;;;2.53;0.88;;;;;;;20.41;42.43;99940.44;4959691;28;20094;-76
2022/05/25 11:10:39;;;;;;;3.30;1.00;;;;;;;20.44;41.93;99941.91;4982502;28;20512;-80
2022/05/25 11:13:25;;;;;;;4.40;0.77;;;;;;;20.45;41.67;99946.25;4941939;28;20042;-81
2022/05/25 11:20:41;;;;;;;2.97;1.00;;;;;;;20.64;41.78;99948.28;5000694;28;20506;-81
2022/05/25 11:23:14;;;;;;;1.85;0.80;;;;;;;20.64;41.80;99944.75;5002079;28;20042;-81
2022/05/25 11:25:59;;;;;;;4.53;0.90;;;;;;;20.67;40.62;99938.94;5018649;28;20042;-81
2022/05/25 11:29:05;;;;;;;2.13;0.75;;;;;;;20.67;40.89;99936.25;4972900;28;20045;-81
2022/05/25 11:31:37;;;;;;;;;;;;;;;20.48;40.83;99938.59;4981836;28;20050;-85
2022/05/25 11:34:16;;;;;;;2.70;1.33;;;;;;;20.55;40.40;99944.88;4991572;28;19921;-85
2022/05/25 11:37:40;;;;;;;2.80;1.08;;;;;;;20.59;40.91;99940.78;4930004;28;20061;-85
2022/05/25 11:40:28;;;;;;;1.42;1.00;;;;;;;20.55;40.98;99935.97;4942641;28;20398;-83
2022/05/25 11:43:27;;;;;;;2.88;1.05;;;;;;;20.63;39.28;99938.50;4971531;28;20049;-83
2022/05/25 11:46:15;;;;;;;5.07;1.20;;;;;;;20.66;41.48;99934.56;4945092;28;20652;-84
2022/05/25 11:53:08;;;;;;;1.98;1.08;;;;;;;20.56;39.97;99935.78;4939725;28;20061;-83
2022/05/25 11:56:05;;;;;;;2.15;0.88;;;;;;;20.60;38.41;99936.19;4916746;28;20054;-83
2022/05/25 11:59:29;;;;;;;3.20;0.95;;;;;;;20.66;40.10;99932.72;4946368;28;20128;-83
2022/05/25 12:02:22;;;;;;;1.95;0.77;;;;;;;20.74;40.43;99937.97;4920684;28;20065;-83
2022/05/25 12:05:10;;;;;;;2.00;0.80;;;;;;;20.86;39.64;99931.97;5011063;28;20161;-83
2022/05/25 12:08:15;;;;;;;1.98;0.68;;;;;;;20.78;40.05;99941.91;4973115;28;20049;-81
2022/05/25 12:11:00;;;;;;;1.98;0.90;;;;;;;20.88;39.43;99938.84;4970986;28;20041;-81
2022/05/25 12:18:36;;;;;;;3.03;0.90;;;;;;;20.84;39.98;99929.50;4998207;28;20108;-81
2022/05/25 12:21:13;;;;;;;2.53;1.08;;;;;;;21.09;40.68;99934.38;4957741;28;20058;-81
2022/05/25 12:23:46;;;;;;;3.17;0.90;;;;;;;21.16;39.95;99922.56;4959072;28;20054;-81
2022/05/25 12:26:17;;;;;;;2.10;1.00;;;;;;;21.22;40.58;99927.16;5007534;28;20068;-82
2022/05/25 12:28:44;;;;;;;2.08;0.75;;;;;;;21.23;40.25;99936.91;5021105;28;20047;-81
2022/05/25 12:31:16;;;;;;;2.85;0.90;;;;;;;21.19;39.20;99922.16;5005895;28;20383;-81
2022/05/25 12:33:44;;;;;;;1.98;1.00;;;;;;;21.22;39.86;99923.63;4969316;28;20529;-81
2022/05/25 12:36:11;;;;;;;1.73;1.00;;;;;;;21.27;40.74;99917.59;4991101;28;20083;-81
2022/05/25 12:38:39;;;;;;;3.03;1.10;;;;;;;21.24;40.81;99926.94;4987255;28;20038;-82
2022/05/25 12:41:27;;;;;;;2.10;1.00;;;;;;;21.24;39.25;99916.13;5001149;28;20048;-81
2022/05/25 12:49:58;;;;;;;2.63;0.85;;;;;;;21.36;39.69;99932.59;4958770;28;20041;-81
2022/05/25 12:52:27;;;;;;;2.65;1.40;;;;;;;21.31;39.06;99941.31;5032960;28;20053;-80
2022/05/25 12:55:07;;;;;;;2.05;0.80;;;;;;;21.28;39.29;99938.19;5021249;28;20060;-87
2022/05/25 12:57:40;;;;;;;1.08;0.85;;;;;;;21.37;39.72;99936.94;4999361;28;20057;-88
2022/05/25 13:00:39;;;;;;;3.90;0.98;;;;;;;21.34;39.25;99931.94;5019374;28;20136;-88
2022/05/25 13:03:19;;;;;;;1.58;1.00;;;;;;;21.38;38.89;99938.63;4959862;28;20080;-89
2022/05/25 13:05:47;;;;;;;4.03;1.08;;;;;;;21.45;40.12;99936.81;5013223;28;20045;-87